createdAt,value
2018-12-12T00:00:09.157Z,93.70
2018-12-12T00:02:40.483Z,93.60
2018-12-12T00:05:11.727Z,93.60
2018-12-12T00:07:41.076Z,93.60
2018-12-12T00:10:14.623Z,93.60
2018-12-12T00:12:45.928Z,93.70
2018-12-12T00:15:16.677Z,93.70
2018-12-12T00:17:46.735Z,93.70
2018-12-12T00:20:16.498Z,93.70
2018-12-12T00:22:45.799Z,93.70
2018-12-12T00:25:15.359Z,93.70
2018-12-12T00:27:45.438Z,93.70
2018-12-12T00:30:14.775Z,93.70
2018-12-12T00:32:44.141Z,93.70
2018-12-12T00:35:13.656Z,93.60
2018-12-12T00:37:43.019Z,93.70
2018-12-12T00:40:13.374Z,93.70
2018-12-12T00:42:42.875Z,93.60
2018-12-12T00:45:12.218Z,93.60
2018-12-12T00:47:41.675Z,93.60
2018-12-12T00:50:11.070Z,93.60
2018-12-12T00:52:40.364Z,93.70
2018-12-12T00:55:09.875Z,93.80
2018-12-12T00:57:39.278Z,93.80
2018-12-12T01:00:08.775Z,93.80
2018-12-12T01:02:38.142Z,93.80
2018-12-12T01:05:07.532Z,93.80
2018-12-12T01:07:36.903Z,93.90
2018-12-12T01:10:06.241Z,93.90
2018-12-12T01:12:35.674Z,93.90
2018-12-12T01:15:05.295Z,93.90
2018-12-12T01:17:35.095Z,94.00
2018-12-12T01:20:07.570Z,94.00
2018-12-12T01:22:37.577Z,94.00
2018-12-12T01:25:07.214Z,94.00
2018-12-12T01:27:36.615Z,94.00
2018-12-12T01:30:06.087Z,94.00
2018-12-12T01:32:36.474Z,94.10
2018-12-12T01:35:06.462Z,94.20
2018-12-12T01:37:35.836Z,94.20
2018-12-12T01:40:06.155Z,94.20
2018-12-12T01:42:35.460Z,94.00
2018-12-12T01:45:05.114Z,94.20
2018-12-12T01:47:34.399Z,94.20
2018-12-12T01:50:04.534Z,94.10
2018-12-12T01:52:33.975Z,94.10
2018-12-12T01:55:03.390Z,94.00
2018-12-12T01:57:32.812Z,94.00
2018-12-12T02:00:02.119Z,94.00
2018-12-12T02:02:33.415Z,94.00
2018-12-12T02:05:02.821Z,94.10
2018-12-12T02:07:32.167Z,94.00
2018-12-12T02:10:01.637Z,94.10
2018-12-12T02:12:32.164Z,94.20
2018-12-12T02:15:03.280Z,94.20
2018-12-12T02:17:32.654Z,94.10
2018-12-12T02:20:02.036Z,94.50
2018-12-12T02:22:31.695Z,94.10
2018-12-12T02:25:01.075Z,94.10
2018-12-12T02:27:30.495Z,94.10
2018-12-12T02:29:59.914Z,94.10
2018-12-12T02:32:29.684Z,94.10
2018-12-12T02:34:59.056Z,94.00
2018-12-12T02:37:28.436Z,93.90
2018-12-12T02:39:57.917Z,94.00
2018-12-12T02:42:27.247Z,93.90
2018-12-12T02:44:56.535Z,93.90
2018-12-12T02:47:25.968Z,93.90
2018-12-12T02:49:55.415Z,93.80
2018-12-12T02:52:24.839Z,93.90
2018-12-12T02:54:54.255Z,94.10
2018-12-12T02:57:23.647Z,94.10
2018-12-12T02:59:52.984Z,94.40
2018-12-12T03:02:22.355Z,94.10
2018-12-12T03:04:51.755Z,94.30
2018-12-12T03:07:21.116Z,94.30
2018-12-12T03:09:50.554Z,94.40
2018-12-12T03:12:20.116Z,94.50
2018-12-12T03:14:53.094Z,94.50
2018-12-12T03:17:22.443Z,94.90
2018-12-12T03:19:51.839Z,94.60
2018-12-12T03:22:21.315Z,94.60
2018-12-12T03:24:50.696Z,94.60
2018-12-12T03:27:20.304Z,94.60
2018-12-12T03:29:49.619Z,94.60
2018-12-12T03:32:18.956Z,94.60
2018-12-12T03:34:48.383Z,94.90
2018-12-12T03:37:18.024Z,94.60
2018-12-12T03:39:47.434Z,94.60
2018-12-12T03:42:16.820Z,94.60
2018-12-12T03:44:46.234Z,94.60
2018-12-12T03:47:15.556Z,94.60
2018-12-12T03:49:44.902Z,94.60
2018-12-12T03:52:14.404Z,94.60
2018-12-12T03:54:43.755Z,94.70
2018-12-12T03:57:13.139Z,94.80
2018-12-12T03:59:42.535Z,94.90
2018-12-12T04:02:11.903Z,94.90
2018-12-12T04:04:41.290Z,95.10
2018-12-12T04:07:10.655Z,95.20
2018-12-12T04:09:40.117Z,95.40
2018-12-12T04:12:09.443Z,95.50
2018-12-12T04:14:38.836Z,95.70
2018-12-12T04:17:08.121Z,95.70
2018-12-12T04:19:37.609Z,95.90
2018-12-12T04:22:08.887Z,96.00
2018-12-12T04:24:38.378Z,96.10
2018-12-12T04:27:07.793Z,96.20
2018-12-12T04:29:40.127Z,96.20
2018-12-12T04:32:10.656Z,96.10
2018-12-12T04:34:40.115Z,96.10
2018-12-12T04:37:09.500Z,96.20
2018-12-12T04:39:39.114Z,96.10
2018-12-12T04:42:08.458Z,96.10
2018-12-12T04:44:38.781Z,96.00
2018-12-12T04:47:08.139Z,95.90
2018-12-12T04:49:37.573Z,95.60
2018-12-12T04:52:06.999Z,95.50
2018-12-12T04:54:36.273Z,95.50
2018-12-12T04:57:05.575Z,95.60
2018-12-12T04:59:35.209Z,95.60
2018-12-12T05:02:04.579Z,95.60
2018-12-12T05:04:33.851Z,95.70
2018-12-12T05:07:04.403Z,95.60
2018-12-12T05:09:34.480Z,95.60
2018-12-12T05:12:03.836Z,95.70
2018-12-12T05:14:33.594Z,95.80
2018-12-12T05:17:02.959Z,95.90
2018-12-12T05:19:33.399Z,96.00
2018-12-12T05:22:02.734Z,96.00
2018-12-12T05:24:32.155Z,96.10
2018-12-12T05:27:01.548Z,96.00
2018-12-12T05:29:30.873Z,96.00
2018-12-12T05:32:00.250Z,95.90
2018-12-12T05:34:29.614Z,95.80
2018-12-12T05:36:59.034Z,95.80
2018-12-12T05:39:28.503Z,95.70
2018-12-12T05:41:57.935Z,95.60
2018-12-12T05:44:27.275Z,95.70
2018-12-12T05:46:56.793Z,95.80
2018-12-12T05:49:26.155Z,95.80
2018-12-12T05:51:55.481Z,95.80
2018-12-12T05:54:24.963Z,95.60
2018-12-12T05:56:54.319Z,95.70
2018-12-12T05:59:23.616Z,95.60
2018-12-12T06:01:53.057Z,95.70
2018-12-12T06:04:22.475Z,95.60
2018-12-12T06:06:51.894Z,95.70
2018-12-12T06:09:22.397Z,95.90
2018-12-12T06:11:52.036Z,95.60
2018-12-12T06:14:21.523Z,95.50
2018-12-12T06:16:50.974Z,95.90
2018-12-12T06:19:20.467Z,95.60
2018-12-12T06:21:49.735Z,95.50
2018-12-12T06:24:19.088Z,95.40
2018-12-12T06:26:48.414Z,95.40
2018-12-12T06:29:17.776Z,95.20
2018-12-12T06:31:47.179Z,95.30
2018-12-12T06:34:16.559Z,95.10
2018-12-12T06:36:45.943Z,94.90
2018-12-12T06:39:15.275Z,94.90
2018-12-12T06:41:44.675Z,94.90
2018-12-12T06:44:13.997Z,95.00
2018-12-12T06:46:43.377Z,95.10
2018-12-12T06:49:12.775Z,95.20
2018-12-12T06:51:42.185Z,95.30
2018-12-12T06:54:11.594Z,94.80
2018-12-12T06:56:40.969Z,94.60
2018-12-12T06:59:10.254Z,94.70
2018-12-12T07:01:39.789Z,94.80
2018-12-12T07:04:09.049Z,94.90
2018-12-12T07:06:38.394Z,94.90
2018-12-12T07:09:13.134Z,94.80
2018-12-12T07:11:42.514Z,94.90
2018-12-12T07:14:11.864Z,94.90
2018-12-12T07:16:41.215Z,94.90
2018-12-12T07:19:10.619Z,94.80
2018-12-12T07:21:39.967Z,94.70
2018-12-12T07:24:09.413Z,94.70
2018-12-12T07:26:38.794Z,94.50
2018-12-12T07:29:08.136Z,94.60
2018-12-12T07:31:37.617Z,94.50
2018-12-12T07:34:09.824Z,94.30
2018-12-12T07:36:39.709Z,94.20
2018-12-12T07:39:17.896Z,94.20
2018-12-12T07:41:46.277Z,94.30
2018-12-12T07:44:17.623Z,93.80
2018-12-12T07:46:49.215Z,93.80
2018-12-12T07:49:20.678Z,93.80
2018-12-12T07:51:51.849Z,93.60
2018-12-12T07:54:21.240Z,93.90
2018-12-12T07:56:50.605Z,93.80
2018-12-12T07:59:20.076Z,93.80
2018-12-12T08:01:49.467Z,93.80
2018-12-12T08:04:18.875Z,93.80
2018-12-12T08:06:48.247Z,93.70
2018-12-12T08:09:17.580Z,93.40
2018-12-12T08:11:46.966Z,93.10
2018-12-12T08:14:16.344Z,93.10
2018-12-12T08:16:45.737Z,93.00
2018-12-12T08:19:15.444Z,92.90
2018-12-12T08:21:47.075Z,92.80
2018-12-12T08:24:17.658Z,92.50
2018-12-12T08:26:48.708Z,92.70
2018-12-12T08:29:18.204Z,92.80
2018-12-12T08:31:47.684Z,92.70
2018-12-12T08:34:17.215Z,92.60
2018-12-12T08:36:46.764Z,92.60
2018-12-12T08:39:16.175Z,92.60
2018-12-12T08:41:45.564Z,92.50
2018-12-12T08:44:14.966Z,92.50
2018-12-12T08:46:44.314Z,92.50
2018-12-12T08:49:13.813Z,92.50
2018-12-12T08:51:43.516Z,92.40
2018-12-12T08:54:12.948Z,92.20
2018-12-12T08:56:42.430Z,91.90
2018-12-12T08:59:11.820Z,92.20
2018-12-12T09:01:41.157Z,91.90
2018-12-12T09:04:10.598Z,91.90
2018-12-12T09:06:40.093Z,91.70
2018-12-12T09:09:09.529Z,91.80
2018-12-12T09:11:40.883Z,91.90
2018-12-12T09:14:10.500Z,91.10
2018-12-12T09:16:39.975Z,91.00
2018-12-12T09:19:11.274Z,90.40
2018-12-12T09:21:40.567Z,88.30
2018-12-12T09:24:10.027Z,88.70
2018-12-12T09:26:39.599Z,88.80
2018-12-12T09:29:08.994Z,87.90
2018-12-12T09:31:40.415Z,87.70
2018-12-12T09:34:11.634Z,86.70
2018-12-12T09:36:41.316Z,86.70
2018-12-12T09:39:10.577Z,87.40
2018-12-12T09:41:40.123Z,88.00
2018-12-12T09:44:09.955Z,88.60
2018-12-12T09:46:39.341Z,88.90
2018-12-12T09:49:08.670Z,89.60
2018-12-12T09:51:39.989Z,88.50
2018-12-12T09:54:11.283Z,88.90
2018-12-12T09:56:40.761Z,88.70
2018-12-12T09:59:11.365Z,88.60
2018-12-12T10:01:40.874Z,87.80
2018-12-12T10:04:10.204Z,87.40
2018-12-12T10:06:39.583Z,87.20
2018-12-12T10:09:09.024Z,87.20
2018-12-12T10:11:41.589Z,84.90
2018-12-12T10:14:10.945Z,85.40
2018-12-12T10:16:40.268Z,84.30
2018-12-12T10:19:09.744Z,84.30
2018-12-12T10:21:39.164Z,83.80
2018-12-12T10:24:08.584Z,84.00
2018-12-12T10:26:37.951Z,83.00
2018-12-12T10:29:07.338Z,82.90
2018-12-12T10:31:36.676Z,81.80
2018-12-12T10:34:06.137Z,79.40
2018-12-12T10:36:45.569Z,79.60
2018-12-12T10:46:22.157Z,80.00
2018-12-12T10:48:52.652Z,79.90
2018-12-12T10:51:22.051Z,80.30
2018-12-12T10:53:51.737Z,79.70
2018-12-12T10:56:21.641Z,80.00
2018-12-12T10:58:53.935Z,79.60
2018-12-12T11:01:27.561Z,78.90
2018-12-12T11:03:57.849Z,80.00
2018-12-12T11:06:28.337Z,79.70
2018-12-12T11:08:57.811Z,79.30
2018-12-12T11:11:27.260Z,77.10
2018-12-12T11:13:58.303Z,75.70
2018-12-12T11:16:27.920Z,76.20
2018-12-12T11:18:58.001Z,75.30
2018-12-12T11:21:27.539Z,76.80
2018-12-12T11:23:57.170Z,77.20
2018-12-12T11:26:26.569Z,77.00
2018-12-12T11:28:56.300Z,77.60
2018-12-12T11:31:25.582Z,78.40
2018-12-12T11:33:54.901Z,79.80
2018-12-12T11:36:24.370Z,78.30
2018-12-12T11:38:53.895Z,79.10
2018-12-12T11:41:23.413Z,80.50
2018-12-12T11:43:53.672Z,81.60
2018-12-12T11:46:26.713Z,81.80
2018-12-12T11:48:56.638Z,81.70
2018-12-12T11:51:26.629Z,82.40
2018-12-12T11:54:03.045Z,82.40
2018-12-12T12:02:10.229Z,85.20
2018-12-12T12:07:34.308Z,84.90
2018-12-12T12:10:12.412Z,85.00
2018-12-12T12:12:57.711Z,85.20
